首页
METAR-TAF:

METAR-TAF

机场 :

L.O. Simenstad Municipal Airport

Osceola, 威斯康辛州, 美国

纬度: 45-18-31N, 经度: 092-41-24W, 海拔: 275米

当前天气观测

该预报发布于32分钟前的08:15 UTC
风速3节,风向西转西南
温度 -21°C
湿度 84%
气压 1018 hPa
能見度: 16.1公里
天空无云

METAR: KOEO 100815Z AUTO 24003KT 10SM CLR M21/M23 A3007 RMK AO2 T12081232

时间: 02:47 (08:47 UTC)


TAF: 丢失

超过4000个机场的气象观测和天气预报(METAR&TAF报告)。

可查询的气象台以黄色和红色小点在地图上表示。

将鼠标移到小点上方,可查看气象台名称。

然后点击查看天气观测和预报。

如需切换地图:点击带黑十字的绿色按钮放大地图;点击带横线的绿色按钮缩小地图;或者点击绿色箭头查看邻近地区的地图。


METAR-TAF: